Flight Track Log - Related Links

Times and Time Zones

All times are in EST time to prevent confusion due to time zone crossing. See the LOG6856 flight status page for this flight to view local times or setup timezone preferences in your user account.

Time Position Orientation Groundspeed Altitude Reporting Facility
EST Latitude Longitude Course Direction KTS MPH feet Rate Location/Type
Thu 09:53:52 AM 57.0362 -7.4707 20° North 174 200 900  Level FlightAware UK
Thu 09:54:10 AM 57.0470 -7.4635 20° North 174 200 1,300 1,000 Climbing FlightAware UK
Thu 09:54:28 AM 57.0487 -7.4440 81° East 174 200 1,500 833 Climbing FlightAware UK
Thu 09:54:46 AM 57.0475 -7.4279 97° East 174 200 1,800 1,000 Climbing FlightAware UK
Thu 09:55:04 AM 57.0448 -7.4122 108° East 174 200 2,100 833 Climbing FlightAware UK
Thu 09:55:22 AM 57.0397 -7.3995 127° Southeast 174 200 2,300 500 Climbing FlightAware UK
Thu 09:55:40 AM 57.0329 -7.3872 135° Southeast 174 200 2,400 333 Climbing FlightAware UK
Thu 09:55:58 AM 57.0276 -7.3714 122° Southeast 174 200 2,500 500 Climbing FlightAware UK
Thu 09:56:16 AM 57.0220 -7.3538 120° Southeast 174 200 2,700 667 Climbing FlightAware UK
Thu 09:56:34 AM 57.0159 -7.3386 127° Southeast 174 200 2,900 500 Climbing FlightAware UK
Thu 09:56:52 AM 57.0094 -7.3225 126° Southeast 174 200 3,000 500 Climbing FlightAware UK
Thu 09:57:10 AM 57.0034 -7.3063 124° Southeast 174 200 3,200 833 Climbing FlightAware UK
Thu 09:57:28 AM 56.9979 -7.2897 121° Southeast 174 200 3,500 667 Climbing FlightAware UK
Thu 09:57:46 AM 56.9938 -7.2718 113° Southeast 174 200 3,600 500 Climbing FlightAware UK
Thu 09:58:04 AM 56.9889 -7.2544 117° Southeast 174 200 3,800 833 Climbing FlightAware UK
Thu 09:58:22 AM 56.9838 -7.2375 119° Southeast 174 200 4,100 833 Climbing FlightAware UK
Thu 09:58:40 AM 56.9779 -7.2221 125° Southeast 174 200 4,300 500 Climbing FlightAware UK
Thu 09:58:58 AM 56.9712 -7.2075 130° Southeast 174 200 4,400 500 Climbing FlightAware UK
Thu 09:59:16 AM 56.9641 -7.1934 133° Southeast 174 200 4,600 667 Climbing FlightAware UK
Thu 09:59:34 AM 56.9571 -7.1788 131° Southeast 174 200 4,800 667 Climbing FlightAware UK
Thu 09:59:52 AM 56.9502 -7.1640 131° Southeast 174 200 5,000 500 Climbing FlightAware UK
Thu 10:00:10 AM 56.9435 -7.1489 129° Southeast 174 200 5,100 500 Climbing FlightAware UK
Thu 10:00:28 AM 56.9375 -7.1321 123° Southeast 174 200 5,300 833 Climbing FlightAware UK
Thu 10:00:46 AM 56.9320 -7.1138 119° Southeast 174 200 5,600 667 Climbing FlightAware UK
Thu 10:01:04 AM 56.9266 -7.0939 116° Southeast 174 200 5,700 500 Climbing FlightAware UK
Thu 10:01:22 AM 56.9205 -7.0768 123° Southeast 174 200 5,900 833 Climbing FlightAware UK
Thu 10:01:40 AM 56.9149 -7.0582 119° Southeast 174 200 6,200 500 Climbing FlightAware UK
Thu 10:01:58 AM 56.9083 -7.0399 123° Southeast 174 200 6,200 500 Level FlightAware UK
Thu 10:02:16 AM 56.9017 -7.0216 123° Southeast 174 200 6,500 667 Climbing FlightAware UK
Thu 10:02:34 AM 56.8951 -7.0037 124° Southeast 174 200 6,600 500 Climbing FlightAware UK
Thu 10:02:52 AM 56.8876 -6.9876 130° Southeast 174 200 6,800 500 Climbing FlightAware UK
Thu 10:03:10 AM 56.8796 -6.9709 131° Southeast 174 200 6,900 500 Climbing FlightAware UK
Thu 10:03:28 AM 56.8720 -6.9539 129° Southeast 174 200 7,100 500 Climbing FlightAware UK
Thu 10:03:46 AM 56.8647 -6.9362 127° Southeast 174 200 7,200 500 Climbing FlightAware UK
Thu 10:04:04 AM 56.8570 -6.9176 127° Southeast 174 200 7,400 500 Climbing FlightAware UK
Thu 10:04:22 AM 56.8496 -6.8988 126° Southeast 174 200 7,500 167 Climbing FlightAware UK
Thu 10:04:40 AM 56.8425 -6.8782 122° Southeast 174 200 7,500  Level FlightAware UK
Thu 10:04:58 AM 56.8346 -6.8555 123° Southeast 174 200 7,500  Level FlightAware UK
Thu 10:05:16 AM 56.8274 -6.8353 123° Southeast 174 200 7,500  Level FlightAware UK
Thu 10:05:34 AM 56.8195 -6.8136 124° Southeast 174 200 7,500  Level FlightAware UK
Thu 10:05:52 AM 56.8117 -6.7922 124° Southeast 174 200 7,500 -333 Level FlightAware UK
Thu 10:06:10 AM 56.8045 -6.7707 122° Southeast 174 200 7,300  Descending FlightAware UK
Thu 10:06:28 AM 56.7969 -6.7487 122° Southeast 174 200 7,500 333 Climbing FlightAware UK
Thu 10:06:46 AM 56.7891 -6.7284 125° Southeast 174 200 7,500  Level FlightAware UK
Thu 10:07:04 AM 56.7807 -6.7093 129° Southeast 174 200 7,500  Level FlightAware UK
Thu 10:07:22 AM 56.7723 -6.6901 129° Southeast 174 200 7,500  Level FlightAware UK
Thu 10:07:40 AM 56.7639 -6.6705 128° Southeast 174 200 7,500 -167 Level FlightAware UK
Thu 10:07:58 AM 56.7558 -6.6507 127° Southeast 174 200 7,400 -167 Descending FlightAware UK
Thu 10:08:16 AM 56.7479 -6.6308 126° Southeast 174 200 7,400  Level FlightAware UK
Thu 10:08:34 AM 56.7402 -6.6111 126° Southeast 174 200 7,400 167 Level FlightAware UK
Thu 10:08:52 AM 56.7327 -6.5910 124° Southeast 174 200 7,500 167 Climbing FlightAware UK
Thu 10:09:10 AM 56.7257 -6.5708 122° Southeast 174 200 7,500  Level FlightAware UK
Thu 10:09:28 AM 56.7192 -6.5500 120° Southeast 174 200 7,500  Level FlightAware UK
Thu 10:09:46 AM 56.7125 -6.5288 120° Southeast 174 200 7,500  Level FlightAware UK
Thu 10:10:04 AM 56.7058 -6.5084 121° Southeast 174 200 7,500  Level FlightAware UK
Thu 10:10:22 AM 56.6987 -6.4884 123° Southeast 174 200 7,500  Level FlightAware UK
Thu 10:10:40 AM 56.6905 -6.4700 129° Southeast 174 200 7,500  Level FlightAware UK
Thu 10:10:58 AM 56.6832 -6.4506 124° Southeast 174 200 7,500  Level FlightAware UK
Thu 10:11:16 AM 56.6758 -6.4310 124° Southeast 174 200 7,500  Level FlightAware UK
Thu 10:11:34 AM 56.6686 -6.4110 123° Southeast 174 200 7,500  Level FlightAware UK
Thu 10:11:52 AM 56.6613 -6.3914 124° Southeast 174 200 7,500  Level FlightAware UK
Thu 10:12:10 AM 56.6539 -6.3719 125° Southeast 174 200 7,500  Level FlightAware UK
Thu 10:12:28 AM 56.6466 -6.3526 124° Southeast 174 200 7,500  Level FlightAware UK
Thu 10:12:46 AM 56.6393 -6.3337 125° Southeast 174 200 7,500  Level FlightAware UK
Thu 10:13:04 AM 56.6317 -6.3150 126° Southeast 174 200 7,500  Level FlightAware UK
Thu 10:13:22 AM 56.6241 -6.2967 127° Southeast 174 200 7,500  Level FlightAware UK
Thu 10:13:40 AM 56.6165 -6.2795 129° Southeast 174 200 7,500  Level FlightAware UK
Thu 10:13:58 AM 56.6093 -6.2619 127° Southeast 174 200 7,500  Level FlightAware UK
Thu 10:14:16 AM 56.6021 -6.2441 126° Southeast 174 200 7,500 -167 Level FlightAware UK
Thu 10:14:34 AM 56.5944 -6.2268 129° Southeast 174 200 7,400  Descending FlightAware UK
Thu 10:14:52 AM 56.5869 -6.2096 128° Southeast 174 200 7,500 167 Climbing FlightAware UK
Thu 10:15:10 AM 56.5797 -6.1922 127° Southeast 174 200 7,500  Level FlightAware UK
Thu 10:15:28 AM 56.5724 -6.1747 127° Southeast 174 200 7,500  Level FlightAware UK
Thu 10:15:46 AM 56.5654 -6.1565 125° Southeast 174 200 7,500  Level FlightAware UK
Thu 10:16:04 AM 56.5583 -6.1387 126° Southeast 174 200 7,500  Level FlightAware UK
Thu 10:16:22 AM 56.5512 -6.1209 126° Southeast 174 200 7,500  Level FlightAware UK
Thu 10:16:40 AM 56.5443 -6.1028 125° Southeast 174 200 7,500  Level FlightAware UK
Thu 10:16:58 AM 56.5374 -6.0844 124° Southeast 174 200 7,500  Level FlightAware UK
Thu 10:17:16 AM 56.5308 -6.0655 122° Southeast 174 200 7,500 -167 Level FlightAware UK
Thu 10:17:34 AM 56.5241 -6.0467 123° Southeast 174 200 7,400  Descending FlightAware UK
Thu 10:17:58 AM 56.5150 -6.0216 123° Southeast 130 150 7,500 143 Climbing FlightAware UK
Thu 10:18:16 AM 56.5085 -6.0029 122° Southeast 174 200 7,500  Level FlightAware UK
Thu 10:18:34 AM 56.5019 -5.9842 122° Southeast 174 200 7,500  Level FlightAware UK
Thu 10:18:52 AM 56.4956 -5.9651 121° Southeast 174 200 7,500  Level FlightAware UK
Thu 10:19:10 AM 56.4893 -5.9461 121° Southeast 174 200 7,500  Level FlightAware UK
Thu 10:19:28 AM 56.4821 -5.9282 126° Southeast 174 200 7,500  Level FlightAware UK
Thu 10:19:46 AM 56.4745 -5.9111 129° Southeast 174 200 7,500  Level FlightAware UK
Thu 10:20:04 AM 56.4675 -5.8932 125° Southeast 174 200 7,500  Level FlightAware UK
Thu 10:20:22 AM 56.4609 -5.8748 123° Southeast 174 200 7,500 -333 Level FlightAware UK
Thu 10:20:40 AM 56.4535 -5.8575 128° Southeast 174 200 7,300  Descending FlightAware UK
Thu 10:20:58 AM 56.4459 -5.8403 129° Southeast 174 200 7,500  Climbing FlightAware UK
Thu 10:21:16 AM 56.4383 -5.8235 129° Southeast 174 200 7,300  Descending FlightAware UK
Thu 10:21:34 AM 56.4304 -5.8074 132° Southeast 174 200 7,500 333 Climbing FlightAware UK
Thu 10:21:52 AM 56.4229 -5.7906 129° Southeast 174 200 7,500  Level FlightAware UK
Thu 10:22:10 AM 56.4158 -5.7735 127° Southeast 174 200 7,500  Level FlightAware UK
Thu 10:22:28 AM 56.4087 -5.7564 127° Southeast 174 200 7,500  Level FlightAware UK
Thu 10:22:52 AM 56.3994 -5.7329 126° Southeast 130 150 7,500 -286 Level FlightAware UK
Thu 10:23:10 AM 56.3923 -5.7150 126° Southeast 174 200 7,300  Descending FlightAware UK
Thu 10:23:28 AM 56.3851 -5.6971 126° Southeast 174 200 7,500 333 Climbing FlightAware UK
Thu 10:23:46 AM 56.3782 -5.6785 124° Southeast 174 200 7,500  Level FlightAware UK
Thu 10:24:04 AM 56.3716 -5.6599 123° Southeast 174 200 7,500  Level FlightAware UK
Thu 10:24:22 AM 56.3648 -5.6414 123° Southeast 174 200 7,500  Level FlightAware UK
Thu 10:24:40 AM 56.3580 -5.6232 124° Southeast 174 200 7,500  Level FlightAware UK
Thu 10:24:58 AM 56.3511 -5.6051 124° Southeast 174 200 7,500  Level FlightAware UK
Thu 10:25:16 AM 56.3441 -5.5875 126° Southeast 174 200 7,500  Level FlightAware UK
Thu 10:25:34 AM 56.3371 -5.5698 125° Southeast 174 200 7,500 -333 Level FlightAware UK
Thu 10:25:52 AM 56.3294 -5.5528 129° Southeast 174 200 7,300  Descending FlightAware UK
Thu 10:26:10 AM 56.3218 -5.5355 128° Southeast 174 200 7,500 333 Climbing FlightAware UK
Thu 10:26:28 AM 56.3145 -5.5179 127° Southeast 174 200 7,500  Level FlightAware UK
Thu 10:26:46 AM 56.3074 -5.5001 126° Southeast 174 200 7,500  Level FlightAware UK
Thu 10:27:04 AM 56.3001 -5.4822 126° Southeast 174 200 7,500  Level FlightAware UK
Thu 10:27:22 AM 56.2929 -5.4643 126° Southeast 174 200 7,500  Level FlightAware UK
Thu 10:27:40 AM 56.2857 -5.4465 126° Southeast 174 200 7,500  Level FlightAware UK
Thu 10:27:58 AM 56.2787 -5.4289 125° Southeast 174 200 7,500  Level FlightAware UK
Thu 10:28:16 AM 56.2714 -5.4117 128° Southeast 174 200 7,500 -167 Level FlightAware UK
Thu 10:28:34 AM 56.2639 -5.3943 128° Southeast 174 200 7,400  Descending FlightAware UK
Thu 10:28:52 AM 56.2556 -5.3779 132° Southeast 174 200 7,500 167 Climbing FlightAware UK
Thu 10:29:10 AM 56.2480 -5.3604 128° Southeast 174 200 7,500  Level FlightAware UK
Thu 10:29:28 AM 56.2410 -5.3426 126° Southeast 174 200 7,500  Level FlightAware UK
Thu 10:29:46 AM 56.2341 -5.3244 124° Southeast 174 200 7,500  Level FlightAware UK
Thu 10:30:04 AM 56.2278 -5.3057 121° Southeast 174 200 7,500 -333 Level FlightAware UK
Thu 10:30:22 AM 56.2213 -5.2864 121° Southeast 174 200 7,300  Descending FlightAware UK
Thu 10:30:40 AM 56.2149 -5.2669 121° Southeast 174 200 7,500 286 Climbing FlightAware UK
Thu 10:31:04 AM 56.2060 -5.2414 122° Southeast 130 150 7,500  Level FlightAware UK
Thu 10:31:22 AM 56.1995 -5.2222 121° Southeast 174 200 7,500 -167 Level FlightAware UK
Thu 10:31:40 AM 56.1926 -5.2032 123° Southeast 174 200 7,400  Descending FlightAware UK
Thu 10:31:58 AM 56.1859 -5.1844 123° Southeast 174 200 7,500  Climbing FlightAware UK
Thu 10:32:16 AM 56.1785 -5.1668 127° Southeast 174 200 7,400 -167 Descending FlightAware UK
Thu 10:32:34 AM 56.1707 -5.1495 129° Southeast 174 200 7,400 167 Level FlightAware UK
Thu 10:32:52 AM 56.1628 -5.1326 130° Southeast 174 200 7,500 167 Climbing FlightAware UK
Thu 10:33:10 AM 56.1557 -5.1162 128° Southeast 174 200 7,500  Level FlightAware UK
Thu 10:33:28 AM 56.1479 -5.0993 130° Southeast 174 200 7,500  Level FlightAware UK
Thu 10:33:46 AM 56.1401 -5.0827 130° Southeast 174 200 7,500  Level FlightAware UK
Thu 10:34:04 AM 56.1324 -5.0661 130° Southeast 174 200 7,500  Level FlightAware UK
Thu 10:34:22 AM 56.1250 -5.0493 128° Southeast 174 200 7,500  Level FlightAware UK
Thu 10:34:40 AM 56.1177 -5.0323 128° Southeast 174 200 7,500 -143 Level FlightAware UK
Thu 10:35:04 AM 56.1082 -5.0097 127° Southeast 130 150 7,400 -143 Descending FlightAware UK
Thu 10:35:22 AM 56.1079 -4.9857 91° East 174 200 7,400  Level FlightAware UK
Thu 10:35:40 AM 56.1090 -4.9607 86° East 174 200 7,400  Level FlightAware UK
Thu 10:35:58 AM 56.1106 -4.9358 83° East 174 200 7,400  Level FlightAware UK
Thu 10:36:16 AM 56.1119 -4.9110 85° East 174 200 7,400 162 Level FlightAware UK
Thu 10:36:35 AM 56.1130 -4.8859 85° East 165 190 7,500 162 Climbing FlightAware UK
Thu 10:36:53 AM 56.1112 -4.8618 98° East 174 200 7,500 -167 Level FlightAware UK
Thu 10:37:11 AM 56.1101 -4.8371 95° East 174 200 7,400 -500 Descending FlightAware UK
Thu 10:37:29 AM 56.1091 -4.8117 94° East 174 200 7,200 -667 Descending FlightAware UK
Thu 10:37:47 AM 56.1077 -4.7858 95° East 174 200 7,000 -667 Descending FlightAware UK
Thu 10:38:05 AM 56.1054 -4.7601 99° East 174 200 6,800 -667 Descending FlightAware UK
Thu 10:38:23 AM 56.1033 -4.7338 98° East 174 200 6,600 -667 Descending FlightAware UK
Thu 10:38:41 AM 56.1009 -4.7078 99° East 174 200 6,400 -500 Descending FlightAware UK
Thu 10:38:59 AM 56.0990 -4.6816 97° East 174 200 6,300 -500 Descending FlightAware UK
Thu 10:39:17 AM 56.0972 -4.6552 97° East 174 200 6,100 -667 Descending FlightAware UK
Thu 10:39:35 AM 56.0953 -4.6287 97° East 174 200 5,900 -667 Descending FlightAware UK
Thu 10:39:53 AM 56.0937 -4.6021 96° East 174 200 5,700 -500 Descending FlightAware UK
Thu 10:40:11 AM 56.0923 -4.5758 96° East 174 200 5,600 -500 Descending FlightAware UK
Thu 10:40:29 AM 56.0910 -4.5496 95° East 174 200 5,400 -667 Descending FlightAware UK
Thu 10:40:47 AM 56.0893 -4.5237 97° East 174 200 5,200 -667 Descending FlightAware UK
Thu 10:41:05 AM 56.0877 -4.4977 96° East 174 200 5,000 -167 Descending FlightAware UK
Thu 10:41:23 AM 56.0860 -4.4719 97° East 174 200 5,100 167 Climbing FlightAware UK
Thu 10:41:41 AM 56.0847 -4.4473 95° East 174 200 5,100 -333 Level FlightAware UK
Thu 10:41:59 AM 56.0839 -4.4233 94° East 174 200 4,900 -167 Descending FlightAware UK
Thu 10:42:17 AM 56.0802 -4.4002 106° East 174 200 5,000 333 Climbing FlightAware UK
Thu 10:42:35 AM 56.0759 -4.3790 110° East 174 200 5,100 167 Climbing FlightAware UK
Thu 10:42:53 AM 56.0714 -4.3582 111° Southeast 174 200 5,100  Level FlightAware UK
Thu 10:43:11 AM 56.0666 -4.3374 112° Southeast 174 200 5,100 -667 Level FlightAware UK
Thu 10:43:29 AM 56.0608 -4.3155 115° Southeast 174 200 4,700 -1,000 Descending FlightAware UK
Thu 10:43:53 AM 56.0535 -4.2861 114° Southeast 130 150 4,400 -714 Descending FlightAware UK
Thu 10:44:11 AM 56.0482 -4.2643 113° Southeast 174 200 4,200 -667 Descending FlightAware UK
Thu 10:44:29 AM 56.0426 -4.2431 115° Southeast 174 200 4,000 -667 Descending FlightAware UK
Thu 10:44:47 AM 56.0365 -4.2227 118° Southeast 174 200 3,800 -667 Descending FlightAware UK
Thu 10:45:05 AM 56.0286 -4.2056 130° Southeast 174 200 3,600 -500 Descending FlightAware UK
Thu 10:45:23 AM 56.0171 -4.2025 171° South 174 200 3,500 -333 Descending FlightAware UK
Thu 10:45:41 AM 56.0056 -4.2061 190° South 174 200 3,400 -571 Descending FlightAware UK
Thu 10:46:05 AM 55.9912 -4.2160 201° Southwest 130 150 3,100 -750 Descending FlightAware UK
Thu 10:46:29 AM 55.9778 -4.2325 214° Southwest 130 150 2,800 -571 Descending FlightAware UK
Thu 10:46:47 AM 55.9683 -4.2458 218° Southwest 174 200 2,700 -500 Descending FlightAware UK
Thu 10:47:05 AM 55.9608 -4.2621 231° Southwest 174 200 2,500 -667 Descending FlightAware UK
Thu 10:47:23 AM 55.9541 -4.2767 231° Southwest 174 200 2,300 -833 Descending FlightAware UK
Thu 10:47:41 AM 55.9487 -4.2901 234° Southwest 174 200 2,000 -714 Descending FlightAware UK
Thu 10:48:05 AM 55.9415 -4.3046 228° Southwest 130 150 1,800 -417 Descending FlightAware UK
Thu 10:48:53 AM 55.9284 -4.3289 230° Southwest 104 120 1,500 -455 Descending FlightAware UK
Thu 10:49:11 AM 55.9231 -4.3383 225° Southwest 174 200 1,300 -500 Descending FlightAware UK
Thu 10:49:29 AM 55.9180 -4.3483 228° Southwest 174 200 1,200 -500 Descending FlightAware UK
Thu 10:49:47 AM 55.9124 -4.3579 224° Southwest 174 200 1,000 -500 Descending FlightAware UK
Thu 10:50:05 AM 55.9063 -4.3678 222° Southwest 174 200 900 -429 Descending FlightAware UK
Thu 10:50:29 AM 55.8993 -4.3822 229° Southwest 130 150 700 -429 Descending FlightAware UK
Thu 10:50:47 AM 55.8939 -4.3925 227° Southwest 174 200 600 -444 Descending FlightAware UK
Thu 10:51:23 AM 55.8832 -4.4124 226° Southwest 87 100 300 -556 Descending FlightAware UK
Thu 10:51:41 AM 55.8778 -4.4225 226° Southwest 174 200 100 -667 Descending FlightAware UK
Thu 10:53:00 AM 55.8719 -4.4331 225° Southwest  Level Estimated

Login

Don't have an account? Register now (free) for customized features, flight alerts, and more!